createdAt,value
2023-03-26T00:04:13.768Z,100245.72
2023-03-26T00:09:08.459Z,100252.44
2023-03-26T00:14:02.727Z,100063.34
2023-03-26T00:18:54.943Z,100208.91
2023-03-26T00:23:50.570Z,100044.28
2023-03-26T00:28:43.458Z,100098.66
2023-03-26T00:33:38.695Z,99928.31
2023-03-26T00:38:30.954Z,99935.13
2023-03-26T00:43:23.760Z,99980.97
2023-03-26T00:48:16.817Z,100228.41
2023-03-26T00:53:09.442Z,100005.91
2023-03-26T00:58:01.982Z,99919.50
2023-03-26T01:02:55.625Z,99966.28
2023-03-26T01:07:47.643Z,100212.03
2023-03-26T01:12:39.524Z,99995.31
2023-03-26T01:17:34.333Z,99756.56
2023-03-26T01:22:27.350Z,99953.94
2023-03-26T01:27:41.257Z,99881.81
2023-03-26T01:32:55.821Z,100168.09
2023-03-26T01:38:01.569Z,99907.28
2023-03-26T01:43:10.485Z,99956.41
2023-03-26T01:48:02.782Z,99842.97
2023-03-26T01:52:54.541Z,99999.13
2023-03-26T01:57:47.438Z,100147.13
2023-03-26T02:02:47.798Z,99928.56
2023-03-26T02:08:09.895Z,100129.00
2023-03-26T02:13:01.976Z,100067.34
2023-03-26T02:17:54.369Z,100128.69
2023-03-26T02:22:47.280Z,99704.13
2023-03-26T02:27:44.542Z,99754.16
2023-03-26T02:32:38.830Z,99715.13
2023-03-26T02:37:33.801Z,100060.19
2023-03-26T02:42:33.726Z,99584.59
2023-03-26T02:47:26.471Z,99860.13
2023-03-26T02:52:18.745Z,99717.94
2023-03-26T02:57:12.827Z,99921.44
2023-03-26T03:02:10.383Z,99810.56
2023-03-26T03:07:03.033Z,99820.75
2023-03-26T03:11:54.981Z,99985.34
2023-03-26T03:16:48.059Z,99716.03
2023-03-26T03:21:40.995Z,99682.69
2023-03-26T03:26:34.233Z,99764.13
2023-03-26T03:31:37.709Z,99889.56
2023-03-26T03:36:33.833Z,99729.66
2023-03-26T03:41:32.068Z,99778.91
2023-03-26T03:46:26.373Z,99945.44
2023-03-26T03:51:18.945Z,99648.47
2023-03-26T03:56:14.789Z,99758.44
2023-03-26T04:01:33.110Z,99624.59
2023-03-26T04:06:30.825Z,99637.75
2023-03-26T04:11:22.953Z,99818.81
2023-03-26T04:16:37.810Z,99682.13
2023-03-26T04:21:33.934Z,99949.56
2023-03-26T04:26:26.314Z,99582.56
2023-03-26T04:31:51.864Z,99724.44
2023-03-26T04:36:46.274Z,99565.88
2023-03-26T04:41:39.817Z,99648.00
2023-03-26T04:46:38.426Z,99733.22
2023-03-26T04:51:46.684Z,99553.59
2023-03-26T04:57:02.906Z,99395.47
2023-03-26T05:02:06.330Z,99427.13
2023-03-26T05:07:09.608Z,99557.47
2023-03-26T05:12:09.683Z,99514.22
2023-03-26T05:17:18.909Z,99468.97
2023-03-26T05:22:12.903Z,99378.31
2023-03-26T05:27:21.539Z,99470.03
2023-03-26T05:32:13.745Z,99689.25
2023-03-26T05:37:08.181Z,99705.19
2023-03-26T05:42:20.567Z,99648.78
2023-03-26T05:47:35.351Z,99718.34
2023-03-26T05:52:27.413Z,99489.84
2023-03-26T05:57:40.252Z,99476.09
2023-03-26T06:02:50.797Z,99518.72
2023-03-26T06:07:48.452Z,99548.78
2023-03-26T06:12:43.906Z,99497.41
2023-03-26T06:17:38.198Z,99681.81
2023-03-26T06:22:43.122Z,99699.09
2023-03-26T06:27:43.359Z,99439.38
2023-03-26T06:33:02.061Z,99486.16
2023-03-26T06:37:58.671Z,99505.13
2023-03-26T06:43:08.606Z,99489.19
2023-03-26T06:48:38.292Z,99267.34
2023-03-26T06:54:00.928Z,99340.25
2023-03-26T06:59:27.884Z,99393.78
2023-03-26T07:04:58.754Z,99213.56
2023-03-26T07:10:26.937Z,99318.72
2023-03-26T07:15:34.011Z,99185.09
2023-03-26T07:21:01.431Z,99359.56
2023-03-26T07:25:56.420Z,99521.50
2023-03-26T07:31:14.676Z,99310.72
2023-03-26T07:36:33.877Z,99270.00
2023-03-26T07:42:09.885Z,99472.66
2023-03-26T07:47:38.850Z,99415.44
2023-03-26T07:53:03.600Z,99342.19
2023-03-26T07:58:40.533Z,99248.31
2023-03-26T08:04:29.886Z,99377.19
2023-03-26T08:10:13.144Z,99528.41
2023-03-26T08:15:45.907Z,99650.56
2023-03-26T08:20:45.705Z,99397.94
2023-03-26T08:25:49.881Z,99267.59
2023-03-26T08:30:42.421Z,99643.69
2023-03-26T08:35:35.269Z,99443.56
2023-03-26T08:40:57.701Z,99195.00
2023-03-26T08:46:11.551Z,99637.19
2023-03-26T08:51:28.546Z,99637.19
2023-03-26T08:56:35.939Z,99628.28
2023-03-26T09:01:41.505Z,99628.50
2023-03-26T09:06:50.347Z,99616.00
2023-03-26T09:11:51.141Z,99608.53
2023-03-26T09:16:55.945Z,99610.53
2023-03-26T09:22:14.140Z,99161.50
2023-03-26T09:27:31.014Z,99578.66
2023-03-26T09:32:42.356Z,99565.59
2023-03-26T09:37:57.554Z,99565.69
2023-03-26T09:43:17.989Z,99553.84
2023-03-26T09:48:19.011Z,99544.34
2023-03-26T09:53:52.324Z,99544.09
2023-03-26T09:59:03.488Z,99534.81
2023-03-26T10:04:17.960Z,99235.56
2023-03-26T10:09:21.970Z,99522.81
2023-03-26T10:14:17.752Z,99521.34
2023-03-26T10:19:37.786Z,99237.81
2023-03-26T10:25:03.705Z,99502.53
2023-03-26T10:30:08.396Z,99494.97
2023-03-26T10:35:31.811Z,99501.16
2023-03-26T10:40:53.300Z,99467.63
2023-03-26T10:46:03.936Z,99481.41
2023-03-26T10:51:21.752Z,99472.25
2023-03-26T10:56:20.307Z,99278.78
2023-03-26T11:01:20.398Z,99170.00
2023-03-26T11:06:25.605Z,99454.28
2023-03-26T11:11:24.762Z,99452.59
2023-03-26T11:16:21.909Z,99294.44
2023-03-26T11:21:46.394Z,99447.91
2023-03-26T11:27:15.231Z,99213.88
2023-03-26T11:32:13.000Z,99444.03
2023-03-26T11:37:34.212Z,99266.72
2023-03-26T11:42:27.828Z,99103.63
2023-03-26T11:47:24.900Z,99291.91
2023-03-26T11:52:17.038Z,99244.53
2023-03-26T11:57:15.857Z,99091.63
2023-03-26T12:02:10.712Z,99437.50
2023-03-26T12:07:24.772Z,99427.88
2023-03-26T12:12:17.896Z,99423.91
2023-03-26T12:17:14.396Z,99223.00
2023-03-26T12:22:06.880Z,99422.25
2023-03-26T12:27:34.242Z,99433.81
2023-03-26T12:32:45.276Z,99360.97
2023-03-26T12:37:43.338Z,99241.75
2023-03-26T12:44:50.756Z,99177.72
2023-03-26T12:47:59.946Z,99125.34
2023-03-26T12:53:10.619Z,99436.13
2023-03-26T12:58:35.824Z,99431.88
2023-03-26T13:04:00.473Z,99434.16
2023-03-26T13:09:03.161Z,99450.97
2023-03-26T13:14:32.378Z,99457.63
2023-03-26T13:19:39.302Z,99285.44
2023-03-26T13:24:51.537Z,99463.22
2023-03-26T13:29:56.540Z,99471.38
2023-03-26T13:34:54.366Z,99473.25
2023-03-26T13:39:51.323Z,99426.97
2023-03-26T13:45:10.773Z,99471.94
2023-03-26T13:50:26.923Z,99481.13
2023-03-26T13:55:22.124Z,99474.94
2023-03-26T14:00:27.691Z,99490.00
2023-03-26T14:05:25.777Z,99487.25
2023-03-26T14:10:23.705Z,99460.81
2023-03-26T14:15:28.074Z,99491.50
2023-03-26T14:20:40.030Z,99499.25
2023-03-26T14:25:53.556Z,99325.31
2023-03-26T14:31:36.119Z,99149.78
2023-03-26T14:37:05.904Z,99208.69
2023-03-26T14:42:17.997Z,99317.97
2023-03-26T14:47:19.262Z,99514.81
2023-03-26T14:52:21.028Z,99522.25
2023-03-26T14:57:48.337Z,99510.25
2023-03-26T15:03:18.546Z,99446.06
2023-03-26T15:08:34.180Z,99539.53
2023-03-26T15:13:56.342Z,99401.31
2023-03-26T15:19:26.894Z,99564.34
2023-03-26T15:24:56.424Z,99566.84
2023-03-26T15:30:11.637Z,99570.97
2023-03-26T15:35:21.699Z,99576.84
2023-03-26T15:40:44.068Z,99589.19
2023-03-26T15:45:48.224Z,99595.13
2023-03-26T15:51:04.169Z,99527.63
2023-03-26T15:56:10.234Z,99537.66
2023-03-26T16:01:20.875Z,99624.50
2023-03-26T16:06:31.094Z,99516.88
2023-03-26T16:11:48.127Z,99646.19
2023-03-26T16:16:56.275Z,99495.75
2023-03-26T16:22:00.527Z,99349.69
2023-03-26T16:27:32.920Z,99556.38
2023-03-26T16:32:32.941Z,99670.81
2023-03-26T16:37:37.964Z,99563.25
2023-03-26T16:42:48.108Z,99626.66
2023-03-26T16:47:45.699Z,99705.94
2023-03-26T16:52:51.949Z,99351.28
2023-03-26T16:58:10.470Z,99292.97
2023-03-26T17:03:21.183Z,99737.91
2023-03-26T17:08:37.839Z,99753.69
2023-03-26T17:13:41.521Z,99658.16
2023-03-26T17:19:07.094Z,99767.25
2023-03-26T17:24:06.241Z,99790.06
2023-03-26T17:29:00.227Z,99798.41
2023-03-26T17:33:52.830Z,99467.28
2023-03-26T17:38:47.566Z,99834.31
2023-03-26T17:43:50.287Z,99790.09
2023-03-26T17:48:47.086Z,99630.63
2023-03-26T17:53:41.402Z,99859.06
2023-03-26T17:58:42.735Z,99501.97
2023-03-26T18:03:49.417Z,99826.59
2023-03-26T18:08:43.131Z,99627.94
2023-03-26T18:14:19.438Z,99761.94
2023-03-26T18:19:19.089Z,99615.22
2023-03-26T18:24:18.281Z,99665.25
2023-03-26T18:29:24.097Z,99953.56
2023-03-26T18:34:20.675Z,99961.63
2023-03-26T18:39:13.574Z,99821.84
2023-03-26T18:44:08.171Z,99549.53
2023-03-26T18:49:03.866Z,100001.56
2023-03-26T18:53:59.322Z,99903.59
2023-03-26T18:58:52.089Z,100036.91
2023-03-26T19:03:44.208Z,99707.56
2023-03-26T19:08:42.114Z,99694.75
2023-03-26T19:13:36.224Z,99808.69
2023-03-26T19:18:28.697Z,99905.50
2023-03-26T19:23:26.451Z,99687.75
2023-03-26T19:28:27.953Z,99722.38
2023-03-26T19:33:21.744Z,99747.19
2023-03-26T19:38:44.839Z,100070.94
2023-03-26T19:43:36.962Z,99914.13
2023-03-26T19:48:45.615Z,100041.06
2023-03-26T19:53:43.800Z,99773.00
2023-03-26T19:58:36.180Z,100135.38
2023-03-26T20:03:30.629Z,100158.09
2023-03-26T20:08:27.142Z,99941.53
2023-03-26T20:13:19.256Z,99887.59
2023-03-26T20:18:12.427Z,100182.97
2023-03-26T20:23:10.707Z,100071.75
2023-03-26T20:28:02.494Z,99903.09
